Loging...

KPDC, Korea Polar Data Center

Korea Polar Data Center Scientific observations and results from Antarctica shall
be exchanged and made freely available

Keyword Search

Advanced Search

Search 159 data out of 29,653

Metadata Search Results1
No. Title Reg. Date
1 [KOPRI-KPDC-00002155]Bacterial and archaeal genome sequence data from Alaska permafrost soil 2022-11-07
2 [KOPRI-KPDC-00002148]Radiation data of Nord site, Greenland in 2021 2022-11-04
3 [KOPRI-KPDC-00002149]Soil physical of Nord site, Greenland in 2021 2022-11-04
4 [KOPRI-KPDC-00002152]Soil physical of Nord site, Greenland in 2022 2022-11-04
5 [KOPRI-KPDC-00002151]Radiation data of Nord site, Greenland in 2022 2022-11-04
6 [KOPRI-KPDC-00002150]Meteorological data of Nord site, Greenland in 2022 2022-11-04
7 [KOPRI-KPDC-00001888]Meteorological data of Cambridge Bay site in Canada in 2021 2022-11-04
8 [KOPRI-KPDC-00002138]Soil physical of Cambridge Bay, Canada site in 2022 2022-11-03
9 [KOPRI-KPDC-00002135]Soil physical of Cambridge Bay, Canada site in 2021 2022-11-03
10 [KOPRI-KPDC-00002137]Radiation data of Cambridge Bay, Canada site in 2022 2022-11-03
11 [KOPRI-KPDC-00002136]Meteorological data of Cambridge Bay , Canada site in 2022 2022-11-03
12 [KOPRI-KPDC-00002134]Volumetric water content data from active layer of Council, Alaska permafrost site in 2022 2022-11-03
13 [KOPRI-KPDC-00002133]CO2 data from active layer of Council, Alaska permafrost site in 2022 2022-11-03
14 [KOPRI-KPDC-00002132]CH4 data from active layer of Council, Alaska permafrost site in 2022 2022-11-03
15 [KOPRI-KPDC-00002131]Soil temperature data from active layer of Council, Alaska permafrost site in 2022 2022-11-03
16 [KOPRI-KPDC-00002129]Radiation data of Cambridge Bay, Canada site in 2021 2022-11-03
17 [KOPRI-KPDC-00002128]Meteorological data of Cambridge Bay , Canada site in 2021 2022-11-03
18 [KOPRI-KPDC-00002126]Soil samples collected in Cambridge Bay, Canada in 2022 2022-11-03
19 [KOPRI-KPDC-00002124]NDVI data collected from climate manipulation plots in Council, Alaska, USA in 2022 2022-11-03
20 [KOPRI-KPDC-00002125]Permafrost core samples in Council, Alaska, USA, 2022 2022-11-03
21 [KOPRI-KPDC-00002123]NDVI data collected from climate manipulation plots in Cambridge Bay, Canada in 2022 2022-11-03
22 [KOPRI-KPDC-00001861]Trace elements and Pb isotopes in Greenland ice core 2022-11-02
23 [KOPRI-KPDC-00002118]Soil Temperature and Moisture at Kougarok site, Alaska in 2022 2022-11-01
24 [KOPRI-KPDC-00000403]Concentrations of atmospheric NOx: August 2012 Northwestern Pacific Transect 2022-01-28
25 [KOPRI-KPDC-00000401]Concentrations of atmospheric NOx: July 2012 Northwestern Pacific Transect 2022-01-28
26 [KOPRI-KPDC-00000430]Concentration of atmospheric ozone: September 2012 Northwestern Pacific Oceans Transect 2022-01-28
27 [KOPRI-KPDC-00000428]Concentration of atmospheric ozone: July 2012 Northwestern Pacific Oceans Transect 2022-01-28
28 [KOPRI-KPDC-00000427]Concentration of atmospheric ozone: August 2011 Northwestern Pacific Oceans Transect 2022-01-28
29 [KOPRI-KPDC-00000425]Concentration of atmospheric ozone: July 2011 Northwestern Pacific Oceans Transect 2022-01-28
30 [KOPRI-KPDC-00000438]Concentration of atmospheric and oceanic carbon dioxide: August 2010 Northwest Pacific Transect 2022-01-28
31 [KOPRI-KPDC-00000365]Concentration of atmospheric and oceanic carbon dioxide: July 2010 Northwest Pacific Transect 2022-01-27
32 [KOPRI-KPDC-00000694]Black Carbon data at Cambridge Bay station (2016Jan01-2016Aug31) 2022-01-27
33 [KOPRI-KPDC-00000860]Black Carbon data at Cambridge Bay station (2016Sep01-2017May31) 2022-01-27
34 [KOPRI-KPDC-00001887]Soil Temperature and Moisture at Kougarok site, Alaska in 2019, 2020, 2021 2021-11-30
35 [KOPRI-KPDC-00001885]Soil temperature data from active layer of Council, Alaska permafrost site in 2021 2021-11-30
36 [KOPRI-KPDC-00001884]CH4 data from active layer of Council, Alaska permafrost site in 2021 2021-11-30
37 [KOPRI-KPDC-00001883]Volumetric water content data from active layer of Council, Alaska permafrost site in 2021 2021-11-30
38 [KOPRI-KPDC-00001882]CO2 data from active layer of Council, Alaska permafrost site in 2021 2021-11-30
39 [KOPRI-KPDC-00001870]Bacterial and archaeal genome sequence data from anaerobically incubated permafrost soil (Alaska) 2021-11-09
40 [KOPRI-KPDC-00001647]CO2 auto-chamber data of Council site in 2019 2021-10-08
41 [KOPRI-KPDC-00001641]Black Carbon data at Cambridge Bay station in 2020 2021-10-08
42 [KOPRI-KPDC-00001545]The complete mitochondrial genome of the fourhorn sculpin Triglopsis quadricornis (Perciformes, Cottidae) from Sirius Passet 2021-10-08
43 [KOPRI-KPDC-00001518]Metagenome and Metatranscriptome data from Alaska permafrost soil 2021-10-08
44 [KOPRI-KPDC-00001513]Soil physical and chemical data from Alaska permafrost soil 2021-10-08
45 [KOPRI-KPDC-00001413]NDVI data collected from climate manipulation plots in Cambridge Bay, Canada in 2019 2021-10-08
46 [KOPRI-KPDC-00001829]Bacterial community 16S rRNA gene NGS data_microcosm incubation of tundra soil, Seward Peninsula in Alaska 2021-10-05
47 [KOPRI-KPDC-00001437]High-resolution hyperspectral images of Council, AK 2021-08-03
48 [KOPRI-KPDC-00001406] Black Carbon data at Cambridge Bay station in 2019 2019-11-13
49 [KOPRI-KPDC-00000881]CO2 auto-chamber data of Council site in 2017 2017-12-05
50 [KOPRI-KPDC-00000685]CO2 auto-chamber data of Council site in 2014 2016-11-25
51 [KOPRI-KPDC-00000683]CO2 auto-chamber data of Council site in 2011 2016-11-25
52 [KOPRI-KPDC-00000686]CO2 auto-chamber data of Council site in 2015 2016-11-25
53 [KOPRI-KPDC-00000687]CO2 auto-chamber data of Council site in 2016 2016-11-25
54 [KOPRI-KPDC-00000682]CO2 auto-chamber data of Council site in 2010 2016-11-25
55 [KOPRI-KPDC-00000684]CO2 auto-chamber data of Council site in 2012 2016-11-25
56 [KOPRI-KPDC-00000690]CO2 manual chamber data of Council site in 2013 2016-11-25
57 [KOPRI-KPDC-00000691]CO2 manual chamber data of Council site in 2014 2016-11-25
58 [KOPRI-KPDC-00000688]CO2 manual chamber data of Council site in 2011 2016-11-25
59 [KOPRI-KPDC-00000689]CO2 manual chamber data of Council site in 2012 2016-11-25
60 [KOPRI-KPDC-00000678]Eddy covariance data of Alaska permafrost site in 2015 2016-11-22
61 [KOPRI-KPDC-00000677]Eddy covariance data of Alaska permafrost site in 2016 2016-11-22
62 [KOPRI-KPDC-00000676]Permafrost core samples in Council, Alaska, USA in 2016 2016-11-18
63 [KOPRI-KPDC-00000674]Air temperature and air humidity data collected from climate manipulation plots in Cambridge Bay, Canada in 2016 2016-11-18
64 [KOPRI-KPDC-00000675]Soil moisture and soil temperature data collected from climate manipulation plots in Cambridge Bay, Canada in 2016 2016-11-18
65 [KOPRI-PAMC-00020813]PAMC 26832 2015-12-28
66 [KOPRI-PAMC-00020812]PAMC 26830 2015-12-28
67 [KOPRI-PAMC-00020811]PAMC 26829 2015-12-28
68 [KOPRI-PAMC-00020810]PAMC 26828 2015-12-28
69 [KOPRI-PAMC-00020809]PAMC 26827 2015-12-28
70 [KOPRI-PAMC-00020808]PAMC 26826 2015-12-28
71 [KOPRI-PAMC-00020807]PAMC 26825 2015-12-28
72 [KOPRI-PAMC-00020806]PAMC 26824 2015-12-28
73 [KOPRI-PAMC-00020805]PAMC 26823 2015-12-28
74 [KOPRI-PAMC-00020804]PAMC 26822 2015-12-28
75 [KOPRI-PAMC-00020803]PAMC 26821 2015-12-28
76 [KOPRI-PAMC-00020802]PAMC 26820 2015-12-28
77 [KOPRI-PAMC-00020801]PAMC 26819 2015-12-28
78 [KOPRI-PAMC-00020800]PAMC 26818 2015-12-28
79 [KOPRI-PAMC-00020799]PAMC 26817 2015-12-28
80 [KOPRI-PAMC-00020798]PAMC 26816 2015-12-28
81 [KOPRI-PAMC-00020797]PAMC 26815 2015-12-28
82 [KOPRI-PAMC-00020796]PAMC 26814 2015-12-28
83 [KOPRI-PAMC-00020795]PAMC 26813 2015-12-28
84 [KOPRI-PAMC-00020794]PAMC 26812 2015-12-28
85 [KOPRI-PAMC-00020793]PAMC 26811 2015-12-28
86 [KOPRI-PAMC-00020792]PAMC 26810 2015-12-28
87 [KOPRI-PAMC-00020791]PAMC 26809 2015-12-28
88 [KOPRI-PAMC-00020790]PAMC 26808 2015-12-28
89 [KOPRI-PAMC-00020789]PAMC 26807 2015-12-28
90 [KOPRI-PAMC-00020788]PAMC 26806 2015-12-28
91 [KOPRI-PAMC-00020787]PAMC 26805 2015-12-28
92 [KOPRI-PAMC-00020786]PAMC 26804 2015-12-28
93 [KOPRI-PAMC-00020785]PAMC 26803 2015-12-28
94 [KOPRI-PAMC-00020784]PAMC 26802 2015-12-28
95 [KOPRI-PAMC-00020783]PAMC 26801 2015-12-28
96 [KOPRI-PAMC-00020782]PAMC 26800 2015-12-28
97 [KOPRI-PAMC-00020781]PAMC 26799 2015-12-28
98 [KOPRI-PAMC-00020780]PAMC 26798 2015-12-28
99 [KOPRI-PAMC-00020779]PAMC 26797 2015-12-28
100 [KOPRI-PAMC-00020778]PAMC 26796 2015-12-28